sensor_id;sensor_type;location;lat;lon;timestamp;pressure;altitude;pressure_sealevel;temperature;humidity
21828;BME280;11076;47.942;11.804;2023-03-15T00:02:30;93619.47;;;2.19;100.00
21828;BME280;11076;47.942;11.804;2023-03-15T00:07:33;93612.19;;;2.22;100.00
21828;BME280;11076;47.942;11.804;2023-03-15T00:12:35;93618.88;;;2.39;100.00
21828;BME280;11076;47.942;11.804;2023-03-15T00:17:37;93626.91;;;2.52;100.00
21828;BME280;11076;47.942;11.804;2023-03-15T00:22:40;93618.13;;;2.67;100.00
21828;BME280;11076;47.942;11.804;2023-03-15T00:27:43;93609.44;;;2.73;100.00
21828;BME280;11076;47.942;11.804;2023-03-15T00:32:45;93615.72;;;2.72;100.00
21828;BME280;11076;47.942;11.804;2023-03-15T00:37:52;93630.88;;;2.85;100.00
21828;BME280;11076;47.942;11.804;2023-03-15T00:42:56;93611.16;;;2.81;100.00
21828;BME280;11076;47.942;11.804;2023-03-15T00:47:58;93622.03;;;2.71;100.00
21828;BME280;11076;47.942;11.804;2023-03-15T00:53:01;93620.31;;;2.63;100.00
21828;BME280;11076;47.942;11.804;2023-03-15T00:58:03;93601.59;;;2.58;100.00
21828;BME280;11076;47.942;11.804;2023-03-15T01:03:05;93601.78;;;2.56;100.00
21828;BME280;11076;47.942;11.804;2023-03-15T01:08:08;93585.56;;;2.59;100.00
21828;BME280;11076;47.942;11.804;2023-03-15T01:13:11;93582.44;;;2.71;100.00
21828;BME280;11076;47.942;11.804;2023-03-15T01:18:13;93582.81;;;2.68;100.00
21828;BME280;11076;47.942;11.804;2023-03-15T01:23:16;93585.13;;;2.77;100.00
21828;BME280;11076;47.942;11.804;2023-03-15T01:28:20;93602.91;;;2.69;100.00
21828;BME280;11076;47.942;11.804;2023-03-15T01:33:23;93674.53;;;2.44;100.00
21828;BME280;11076;47.942;11.804;2023-03-15T01:38:25;93669.78;;;1.29;100.00
21828;BME280;11076;47.942;11.804;2023-03-15T01:43:32;93653.75;;;1.01;100.00
21828;BME280;11076;47.942;11.804;2023-03-15T01:48:40;93652.19;;;0.91;100.00
21828;BME280;11076;47.942;11.804;2023-03-15T01:54:23;93632.78;;;0.92;100.00
21828;BME280;11076;47.942;11.804;2023-03-15T01:59:31;93665.47;;;0.98;100.00
21828;BME280;11076;47.942;11.804;2023-03-15T02:04:41;93657.56;;;0.98;100.00
21828;BME280;11076;47.942;11.804;2023-03-15T02:09:56;93676.81;;;0.98;100.00
21828;BME280;11076;47.942;11.804;2023-03-15T02:15:04;93687.28;;;1.07;100.00
21828;BME280;11076;47.942;11.804;2023-03-15T02:31:00;93708.19;;;1.23;100.00
21828;BME280;11076;47.942;11.804;2023-03-15T02:41:31;93724.44;;;1.27;100.00
21828;BME280;11076;47.942;11.804;2023-03-15T02:46:35;93738.63;;;1.26;100.00
21828;BME280;11076;47.942;11.804;2023-03-15T02:51:38;93738.25;;;1.29;100.00
21828;BME280;11076;47.942;11.804;2023-03-15T02:56:40;93738.50;;;1.19;100.00
21828;BME280;11076;47.942;11.804;2023-03-15T03:01:43;93740.16;;;1.20;100.00
21828;BME280;11076;47.942;11.804;2023-03-15T03:06:47;93757.94;;;1.18;100.00
21828;BME280;11076;47.942;11.804;2023-03-15T03:11:54;93763.22;;;1.18;100.00
21828;BME280;11076;47.942;11.804;2023-03-15T03:16:56;93774.44;;;1.12;100.00
21828;BME280;11076;47.942;11.804;2023-03-15T03:21:59;93778.44;;;1.08;100.00
21828;BME280;11076;47.942;11.804;2023-03-15T03:27:01;93805.25;;;1.03;100.00
21828;BME280;11076;47.942;11.804;2023-03-15T03:32:08;93820.63;;;0.91;100.00
21828;BME280;11076;47.942;11.804;2023-03-15T03:37:11;93868.09;;;0.75;100.00
21828;BME280;11076;47.942;11.804;2023-03-15T03:42:25;93885.31;;;0.46;100.00
21828;BME280;11076;47.942;11.804;2023-03-15T03:47:28;93904.75;;;0.29;100.00
21828;BME280;11076;47.942;11.804;2023-03-15T03:52:30;93920.88;;;0.17;100.00
21828;BME280;11076;47.942;11.804;2023-03-15T03:57:46;93934.84;;;0.02;100.00
21828;BME280;11076;47.942;11.804;2023-03-15T04:02:58;93943.09;;;-0.10;100.00
21828;BME280;11076;47.942;11.804;2023-03-15T04:08:05;93971.50;;;-0.05;100.00
21828;BME280;11076;47.942;11.804;2023-03-15T04:13:12;93990.84;;;-0.14;100.00
21828;BME280;11076;47.942;11.804;2023-03-15T04:18:15;94005.31;;;-0.18;100.00
21828;BME280;11076;47.942;11.804;2023-03-15T04:23:23;94024.03;;;-0.22;100.00
21828;BME280;11076;47.942;11.804;2023-03-15T04:28:44;94028.63;;;-0.24;100.00
21828;BME280;11076;47.942;11.804;2023-03-15T04:34:10;94039.97;;;-0.23;100.00
21828;BME280;11076;47.942;11.804;2023-03-15T04:39:31;94045.38;;;-0.16;100.00
21828;BME280;11076;47.942;11.804;2023-03-15T04:44:56;94058.66;;;-0.18;100.00
21828;BME280;11076;47.942;11.804;2023-03-15T04:50:12;94077.06;;;-0.18;100.00
21828;BME280;11076;47.942;11.804;2023-03-15T04:55:34;94088.03;;;-0.31;100.00
21828;BME280;11076;47.942;11.804;2023-03-15T05:00:57;94094.25;;;-0.40;100.00
21828;BME280;11076;47.942;11.804;2023-03-15T05:06:22;94109.97;;;-0.48;100.00
21828;BME280;11076;47.942;11.804;2023-03-15T05:11:39;94119.81;;;-0.50;100.00
21828;BME280;11076;47.942;11.804;2023-03-15T05:16:48;94137.53;;;-0.52;100.00
21828;BME280;11076;47.942;11.804;2023-03-15T05:22:03;94147.22;;;-0.53;100.00
21828;BME280;11076;47.942;11.804;2023-03-15T05:27:24;94164.31;;;-0.49;100.00
21828;BME280;11076;47.942;11.804;2023-03-15T05:32:37;94171.69;;;-0.52;100.00
21828;BME280;11076;47.942;11.804;2023-03-15T05:37:54;94180.56;;;-0.53;100.00
21828;BME280;11076;47.942;11.804;2023-03-15T05:43:14;94186.44;;;-0.59;100.00
21828;BME280;11076;47.942;11.804;2023-03-15T05:48:45;94201.81;;;-0.65;100.00
21828;BME280;11076;47.942;11.804;2023-03-15T05:54:00;94209.88;;;-0.58;100.00
21828;BME280;11076;47.942;11.804;2023-03-15T05:59:35;94224.69;;;-0.57;100.00
21828;BME280;11076;47.942;11.804;2023-03-15T06:05:02;94237.03;;;-0.49;100.00
21828;BME280;11076;47.942;11.804;2023-03-15T06:10:05;94234.66;;;-0.34;100.00
21828;BME280;11076;47.942;11.804;2023-03-15T06:15:08;94256.69;;;-0.27;100.00
21828;BME280;11076;47.942;11.804;2023-03-15T06:20:11;94255.34;;;-0.05;100.00
21828;BME280;11076;47.942;11.804;2023-03-15T06:25:14;94260.13;;;0.08;100.00
21828;BME280;11076;47.942;11.804;2023-03-15T06:30:17;94272.34;;;0.17;100.00
21828;BME280;11076;47.942;11.804;2023-03-15T06:35:24;94279.72;;;0.13;100.00
21828;BME280;11076;47.942;11.804;2023-03-15T06:40:27;94277.19;;;-0.05;100.00
21828;BME280;11076;47.942;11.804;2023-03-15T06:45:30;94285.50;;;-0.17;100.00
21828;BME280;11076;47.942;11.804;2023-03-15T06:50:33;94290.84;;;-0.27;100.00
21828;BME280;11076;47.942;11.804;2023-03-15T06:55:47;94292.03;;;-0.22;100.00
21828;BME280;11076;47.942;11.804;2023-03-15T07:00:51;94304.91;;;-0.36;100.00
21828;BME280;11076;47.942;11.804;2023-03-15T07:05:54;94303.59;;;0.20;100.00
21828;BME280;11076;47.942;11.804;2023-03-15T07:10:56;94317.41;;;0.22;100.00
21828;BME280;11076;47.942;11.804;2023-03-15T07:15:59;94312.78;;;0.58;100.00
21828;BME280;11076;47.942;11.804;2023-03-15T07:21:03;94323.69;;;0.72;100.00
21828;BME280;11076;47.942;11.804;2023-03-15T07:26:05;94322.91;;;0.88;100.00
21828;BME280;11076;47.942;11.804;2023-03-15T07:31:08;94327.69;;;1.01;100.00
21828;BME280;11076;47.942;11.804;2023-03-15T07:36:10;94334.63;;;1.02;100.00
21828;BME280;11076;47.942;11.804;2023-03-15T07:41:13;94344.84;;;1.29;100.00
21828;BME280;11076;47.942;11.804;2023-03-15T07:46:26;94354.75;;;1.44;100.00
21828;BME280;11076;47.942;11.804;2023-03-15T07:51:28;94355.25;;;1.72;100.00
21828;BME280;11076;47.942;11.804;2023-03-15T07:56:30;94363.28;;;1.87;100.00
21828;BME280;11076;47.942;11.804;2023-03-15T08:01:33;94352.38;;;2.14;98.41
21828;BME280;11076;47.942;11.804;2023-03-15T08:06:35;94356.66;;;2.24;93.28
21828;BME280;11076;47.942;11.804;2023-03-15T08:11:37;94357.91;;;2.44;98.02
21828;BME280;11076;47.942;11.804;2023-03-15T08:16:40;94359.34;;;3.03;98.43
21828;BME280;11076;47.942;11.804;2023-03-15T08:21:42;94362.91;;;3.41;98.23
21828;BME280;11076;47.942;11.804;2023-03-15T08:26:47;94361.41;;;3.47;87.83
21828;BME280;11076;47.942;11.804;2023-03-15T08:31:49;94373.38;;;3.34;92.49
21828;BME280;11076;47.942;11.804;2023-03-15T08:36:52;94368.78;;;3.28;89.46
21828;BME280;11076;47.942;11.804;2023-03-15T08:41:54;94377.38;;;3.76;90.06
21828;BME280;11076;47.942;11.804;2023-03-15T08:46:56;94362.22;;;3.70;87.95
21828;BME280;11076;47.942;11.804;2023-03-15T08:51:59;94346.09;;;3.11;88.70
21828;BME280;11076;47.942;11.804;2023-03-15T08:57:01;94346.03;;;2.48;86.01
21828;BME280;11076;47.942;11.804;2023-03-15T09:02:05;94351.44;;;1.99;87.37
21828;BME280;11076;47.942;11.804;2023-03-15T09:07:08;94350.06;;;2.28;89.68
21828;BME280;11076;47.942;11.804;2023-03-15T09:12:10;94344.09;;;3.13;86.99
21828;BME280;11076;47.942;11.804;2023-03-15T09:17:12;94339.78;;;3.66;82.12
21828;BME280;11076;47.942;11.804;2023-03-15T09:22:15;94336.13;;;4.05;80.36
21828;BME280;11076;47.942;11.804;2023-03-15T09:27:24;94336.19;;;4.50;83.72
21828;BME280;11076;47.942;11.804;2023-03-15T09:32:27;94344.19;;;4.42;79.93
21828;BME280;11076;47.942;11.804;2023-03-15T09:37:29;94340.72;;;5.22;84.75
21828;BME280;11076;47.942;11.804;2023-03-15T09:58:28;94344.44;;;4.91;74.37
21828;BME280;11076;47.942;11.804;2023-03-15T10:03:51;94347.22;;;5.20;73.88
21828;BME280;11076;47.942;11.804;2023-03-15T10:08:57;94354.44;;;5.11;70.57
21828;BME280;11076;47.942;11.804;2023-03-15T10:19:30;94363.25;;;5.69;61.52
21828;BME280;11076;47.942;11.804;2023-03-15T10:29:52;94362.41;;;5.69;63.92
21828;BME280;11076;47.942;11.804;2023-03-15T10:34:57;94370.31;;;5.84;61.69
21828;BME280;11076;47.942;11.804;2023-03-15T10:39:59;94357.47;;;6.59;59.53
21828;BME280;11076;47.942;11.804;2023-03-15T10:50:31;94372.31;;;5.02;61.51
21828;BME280;11076;47.942;11.804;2023-03-15T10:55:43;94369.66;;;4.28;64.40
21828;BME280;11076;47.942;11.804;2023-03-15T11:00:51;94372.47;;;4.26;61.32
21828;BME280;11076;47.942;11.804;2023-03-15T11:05:56;94367.63;;;4.89;61.77
21828;BME280;11076;47.942;11.804;2023-03-15T11:10:59;94363.41;;;5.46;58.49
21828;BME280;11076;47.942;11.804;2023-03-15T11:16:18;94353.63;;;5.90;55.39
21828;BME280;11076;47.942;11.804;2023-03-15T11:21:25;94345.72;;;5.32;56.54
21828;BME280;11076;47.942;11.804;2023-03-15T11:26:38;94346.53;;;5.32;58.66
21828;BME280;11076;47.942;11.804;2023-03-15T11:31:42;94340.09;;;5.20;59.15
21828;BME280;11076;47.942;11.804;2023-03-15T11:36:46;94325.94;;;5.49;56.57
21828;BME280;11076;47.942;11.804;2023-03-15T11:42:11;94342.34;;;5.60;55.49
21828;BME280;11076;47.942;11.804;2023-03-15T11:52:28;94339.31;;;5.05;52.24
21828;BME280;11076;47.942;11.804;2023-03-15T12:02:48;94318.41;;;5.31;52.85
21828;BME280;11076;47.942;11.804;2023-03-15T12:08:15;94316.06;;;5.22;53.80
21828;BME280;11076;47.942;11.804;2023-03-15T12:13:23;94313.72;;;5.12;53.06
21828;BME280;11076;47.942;11.804;2023-03-15T12:18:31;94304.31;;;5.09;53.20
21828;BME280;11076;47.942;11.804;2023-03-15T12:23:38;94296.22;;;4.96;49.26
21828;BME280;11076;47.942;11.804;2023-03-15T12:34:02;94294.63;;;5.88;50.79
21828;BME280;11076;47.942;11.804;2023-03-15T12:44:41;94282.53;;;7.31;45.81
21828;BME280;11076;47.942;11.804;2023-03-15T12:49:44;94279.72;;;7.60;46.29
21828;BME280;11076;47.942;11.804;2023-03-15T12:55:06;94275.84;;;7.89;43.14
21828;BME280;11076;47.942;11.804;2023-03-15T13:00:16;94274.81;;;8.03;45.73
21828;BME280;11076;47.942;11.804;2023-03-15T13:21:32;94287.22;;;6.68;45.86
21828;BME280;11076;47.942;11.804;2023-03-15T13:27:01;94290.75;;;6.82;46.18
21828;BME280;11076;47.942;11.804;2023-03-15T13:32:16;94286.19;;;7.24;46.60
21828;BME280;11076;47.942;11.804;2023-03-15T13:37:24;94284.19;;;7.32;46.12
21828;BME280;11076;47.942;11.804;2023-03-15T13:42:39;94294.63;;;7.41;47.20
21828;BME280;11076;47.942;11.804;2023-03-15T13:47:43;94288.25;;;6.73;43.87
21828;BME280;11076;47.942;11.804;2023-03-15T13:52:47;94297.91;;;6.81;46.68
21828;BME280;11076;47.942;11.804;2023-03-15T13:57:53;94294.97;;;6.63;46.84
21828;BME280;11076;47.942;11.804;2023-03-15T14:03:04;94306.78;;;5.97;48.74
21828;BME280;11076;47.942;11.804;2023-03-15T14:13:29;94297.94;;;6.18;48.52
21828;BME280;11076;47.942;11.804;2023-03-15T14:18:36;94292.59;;;6.46;47.88
21828;BME280;11076;47.942;11.804;2023-03-15T14:23:44;94295.19;;;6.68;47.45
21828;BME280;11076;47.942;11.804;2023-03-15T14:28:54;94291.91;;;6.72;47.33
21828;BME280;11076;47.942;11.804;2023-03-15T14:34:07;94295.69;;;6.50;47.33
21828;BME280;11076;47.942;11.804;2023-03-15T14:39:19;94300.09;;;6.36;47.53
21828;BME280;11076;47.942;11.804;2023-03-15T14:44:24;94304.47;;;6.15;48.47
21828;BME280;11076;47.942;11.804;2023-03-15T14:49:27;94314.13;;;5.95;49.61
21828;BME280;11076;47.942;11.804;2023-03-15T14:54:30;94311.19;;;5.90;50.11
21828;BME280;11076;47.942;11.804;2023-03-15T14:59:33;94309.75;;;5.66;50.97
21828;BME280;11076;47.942;11.804;2023-03-15T15:04:38;94307.13;;;5.94;49.97
21828;BME280;11076;47.942;11.804;2023-03-15T15:09:46;94306.09;;;6.16;50.13
21828;BME280;11076;47.942;11.804;2023-03-15T15:14:49;94302.19;;;6.12;50.81
21828;BME280;11076;47.942;11.804;2023-03-15T15:19:52;94307.78;;;5.96;50.19
21828;BME280;11076;47.942;11.804;2023-03-15T15:24:54;94305.28;;;5.66;50.92
21828;BME280;11076;47.942;11.804;2023-03-15T15:29:57;94307.69;;;5.61;51.99
21828;BME280;11076;47.942;11.804;2023-03-15T15:34:59;94299.78;;;5.46;51.34
21828;BME280;11076;47.942;11.804;2023-03-15T15:40:19;94304.94;;;5.54;52.45
21828;BME280;11076;47.942;11.804;2023-03-15T15:45:22;94298.69;;;5.62;52.72
21828;BME280;11076;47.942;11.804;2023-03-15T15:50:25;94310.44;;;5.96;51.89
21828;BME280;11076;47.942;11.804;2023-03-15T15:55:35;94315.38;;;5.99;52.85
21828;BME280;11076;47.942;11.804;2023-03-15T16:00:37;94316.44;;;5.40;52.77
21828;BME280;11076;47.942;11.804;2023-03-15T16:05:40;94317.34;;;5.11;53.70
21828;BME280;11076;47.942;11.804;2023-03-15T16:10:43;94326.69;;;5.07;54.43
21828;BME280;11076;47.942;11.804;2023-03-15T16:15:45;94327.44;;;5.01;54.39
21828;BME280;11076;47.942;11.804;2023-03-15T16:20:48;94330.47;;;4.97;54.44
21828;BME280;11076;47.942;11.804;2023-03-15T16:25:53;94341.31;;;5.03;55.20
21828;BME280;11076;47.942;11.804;2023-03-15T16:30:56;94352.22;;;4.78;55.39
21828;BME280;11076;47.942;11.804;2023-03-15T16:36:00;94361.63;;;4.36;58.00
21828;BME280;11076;47.942;11.804;2023-03-15T16:41:02;94375.00;;;4.05;60.39
21828;BME280;11076;47.942;11.804;2023-03-15T16:46:12;94398.69;;;3.98;59.75
21828;BME280;11076;47.942;11.804;2023-03-15T16:51:15;94412.25;;;3.95;60.12
21828;BME280;11076;47.942;11.804;2023-03-15T16:56:18;94424.38;;;3.66;63.45
21828;BME280;11076;47.942;11.804;2023-03-15T17:01:20;94430.06;;;3.24;67.04
21828;BME280;11076;47.942;11.804;2023-03-15T17:06:22;94437.69;;;3.10;69.48
21828;BME280;11076;47.942;11.804;2023-03-15T17:11:27;94433.34;;;2.86;70.71
21828;BME280;11076;47.942;11.804;2023-03-15T17:16:30;94440.81;;;2.66;71.19
21828;BME280;11076;47.942;11.804;2023-03-15T17:21:33;94451.84;;;2.78;70.97
21828;BME280;11076;47.942;11.804;2023-03-15T17:26:37;94473.41;;;2.98;70.98
21828;BME280;11076;47.942;11.804;2023-03-15T17:31:41;94481.53;;;2.96;72.13
21828;BME280;11076;47.942;11.804;2023-03-15T17:36:45;94475.09;;;2.91;71.66
21828;BME280;11076;47.942;11.804;2023-03-15T17:41:48;94493.94;;;2.79;72.61
21828;BME280;11076;47.942;11.804;2023-03-15T17:46:50;94488.53;;;2.73;72.97
21828;BME280;11076;47.942;11.804;2023-03-15T17:51:52;94495.97;;;2.53;73.78
21828;BME280;11076;47.942;11.804;2023-03-15T17:56:55;94498.13;;;2.41;74.94
21828;BME280;11076;47.942;11.804;2023-03-15T18:02:00;94492.50;;;2.36;75.32
21828;BME280;11076;47.942;11.804;2023-03-15T18:07:03;94495.97;;;2.36;76.28
21828;BME280;11076;47.942;11.804;2023-03-15T18:12:08;94499.94;;;2.49;76.82
21828;BME280;11076;47.942;11.804;2023-03-15T18:17:11;94506.00;;;2.66;76.67
21828;BME280;11076;47.942;11.804;2023-03-15T18:22:15;94505.69;;;2.69;77.35
21828;BME280;11076;47.942;11.804;2023-03-15T18:27:18;94518.88;;;2.77;77.43
21828;BME280;11076;47.942;11.804;2023-03-15T18:32:21;94524.47;;;2.74;77.70
21828;BME280;11076;47.942;11.804;2023-03-15T18:37:23;94526.31;;;2.65;78.18
21828;BME280;11076;47.942;11.804;2023-03-15T18:42:25;94520.22;;;2.48;78.89
21828;BME280;11076;47.942;11.804;2023-03-15T18:47:28;94523.03;;;2.47;79.17
21828;BME280;11076;47.942;11.804;2023-03-15T18:52:30;94518.56;;;2.47;79.88
21828;BME280;11076;47.942;11.804;2023-03-15T18:57:33;94525.16;;;2.51;80.09
21828;BME280;11076;47.942;11.804;2023-03-15T19:02:36;94538.53;;;2.42;81.54
21828;BME280;11076;47.942;11.804;2023-03-15T19:07:39;94541.00;;;2.35;82.69
21828;BME280;11076;47.942;11.804;2023-03-15T19:12:41;94549.25;;;2.40;82.72
21828;BME280;11076;47.942;11.804;2023-03-15T19:17:48;94553.84;;;2.54;82.48
21828;BME280;11076;47.942;11.804;2023-03-15T19:22:51;94563.44;;;2.47;84.72
21828;BME280;11076;47.942;11.804;2023-03-15T19:27:53;94573.13;;;2.22;86.83
21828;BME280;11076;47.942;11.804;2023-03-15T19:32:56;94570.81;;;2.11;88.05
21828;BME280;11076;47.942;11.804;2023-03-15T19:37:58;94580.34;;;1.95;92.51
21828;BME280;11076;47.942;11.804;2023-03-15T19:43:01;94572.91;;;1.91;91.58
21828;BME280;11076;47.942;11.804;2023-03-15T19:48:04;94584.47;;;1.90;92.69
21828;BME280;11076;47.942;11.804;2023-03-15T19:53:06;94587.59;;;1.93;92.30
21828;BME280;11076;47.942;11.804;2023-03-15T19:58:09;94590.75;;;1.97;93.21
21828;BME280;11076;47.942;11.804;2023-03-15T20:03:11;94598.31;;;1.92;93.42
21828;BME280;11076;47.942;11.804;2023-03-15T20:08:13;94599.63;;;1.96;93.87
21828;BME280;11076;47.942;11.804;2023-03-15T20:13:16;94602.66;;;2.09;93.56
21828;BME280;11076;47.942;11.804;2023-03-15T20:18:18;94601.97;;;2.07;93.80
21828;BME280;11076;47.942;11.804;2023-03-15T20:23:21;94608.88;;;2.08;93.99
21828;BME280;11076;47.942;11.804;2023-03-15T20:28:23;94618.16;;;2.21;94.08
21828;BME280;11076;47.942;11.804;2023-03-15T20:33:25;94618.91;;;1.96;95.60
21828;BME280;11076;47.942;11.804;2023-03-15T20:38:28;94618.47;;;2.09;95.98
21828;BME280;11076;47.942;11.804;2023-03-15T20:43:31;94622.75;;;2.10;96.08
21828;BME280;11076;47.942;11.804;2023-03-15T20:48:35;94625.38;;;2.02;96.70
21828;BME280;11076;47.942;11.804;2023-03-15T20:53:37;94633.59;;;1.99;96.24
21828;BME280;11076;47.942;11.804;2023-03-15T20:58:40;94630.91;;;1.91;96.40
21828;BME280;11076;47.942;11.804;2023-03-15T21:03:43;94634.22;;;1.93;96.96
21828;BME280;11076;47.942;11.804;2023-03-15T21:08:46;94644.09;;;1.91;96.92
21828;BME280;11076;47.942;11.804;2023-03-15T21:13:48;94647.22;;;1.86;97.66
21828;BME280;11076;47.942;11.804;2023-03-15T21:18:51;94650.72;;;1.95;97.83
21828;BME280;11076;47.942;11.804;2023-03-15T21:23:54;94649.88;;;1.94;97.75
21828;BME280;11076;47.942;11.804;2023-03-15T21:28:56;94645.78;;;1.92;97.73
21828;BME280;11076;47.942;11.804;2023-03-15T21:33:59;94637.47;;;1.78;98.23
21828;BME280;11076;47.942;11.804;2023-03-15T21:39:01;94645.06;;;1.82;98.14
21828;BME280;11076;47.942;11.804;2023-03-15T21:44:03;94642.56;;;1.72;98.69
21828;BME280;11076;47.942;11.804;2023-03-15T21:49:07;94645.19;;;1.72;98.70
21828;BME280;11076;47.942;11.804;2023-03-15T21:54:09;94653.78;;;1.74;98.67
21828;BME280;11076;47.942;11.804;2023-03-15T21:59:12;94656.78;;;1.53;98.47
21828;BME280;11076;47.942;11.804;2023-03-15T22:04:14;94644.38;;;1.45;98.74
21828;BME280;11076;47.942;11.804;2023-03-15T22:09:17;94650.81;;;1.43;99.08
21828;BME280;11076;47.942;11.804;2023-03-15T22:14:20;94640.19;;;1.26;98.87
21828;BME280;11076;47.942;11.804;2023-03-15T22:19:22;94645.34;;;1.10;98.97
21828;BME280;11076;47.942;11.804;2023-03-15T22:24:28;94659.44;;;1.01;99.03
21828;BME280;11076;47.942;11.804;2023-03-15T22:29:30;94658.47;;;1.02;99.12
21828;BME280;11076;47.942;11.804;2023-03-15T22:34:33;94665.09;;;1.06;99.66
21828;BME280;11076;47.942;11.804;2023-03-15T22:39:35;94664.75;;;1.09;100.00
21828;BME280;11076;47.942;11.804;2023-03-15T22:44:37;94662.59;;;1.30;100.00
21828;BME280;11076;47.942;11.804;2023-03-15T22:49:40;94666.78;;;1.15;100.00
21828;BME280;11076;47.942;11.804;2023-03-15T22:54:42;94663.47;;;1.13;100.00
21828;BME280;11076;47.942;11.804;2023-03-15T22:59:44;94660.16;;;1.11;100.00
21828;BME280;11076;47.942;11.804;2023-03-15T23:04:47;94668.78;;;0.95;100.00
21828;BME280;11076;47.942;11.804;2023-03-15T23:09:49;94671.38;;;1.13;100.00
21828;BME280;11076;47.942;11.804;2023-03-15T23:14:52;94666.25;;;1.11;100.00
21828;BME280;11076;47.942;11.804;2023-03-15T23:19:55;94663.84;;;1.18;100.00
21828;BME280;11076;47.942;11.804;2023-03-15T23:24:57;94660.84;;;1.13;100.00
21828;BME280;11076;47.942;11.804;2023-03-15T23:29:59;94661.31;;;1.08;100.00
21828;BME280;11076;47.942;11.804;2023-03-15T23:35:03;94668.47;;;0.98;100.00
21828;BME280;11076;47.942;11.804;2023-03-15T23:40:07;94665.16;;;0.96;100.00
21828;BME280;11076;47.942;11.804;2023-03-15T23:45:14;94676.91;;;1.02;100.00
21828;BME280;11076;47.942;11.804;2023-03-15T23:50:16;94684.19;;;1.08;100.00
21828;BME280;11076;47.942;11.804;2023-03-15T23:55:20;94682.84;;;1.04;100.00
